sensor_id;sensor_type;location;lat;lon;timestamp;pressure;altitude;pressure_sealevel;temperature;humidity
49515;BME280;35415;47.870;16.058;2023-02-28T00:01:22;98202.41;;;0.23;65.77
49515;BME280;35415;47.870;16.058;2023-02-28T00:03:50;98208.69;;;0.22;65.87
49515;BME280;35415;47.870;16.058;2023-02-28T00:06:18;98187.66;;;0.06;66.26
49515;BME280;35415;47.870;16.058;2023-02-28T00:08:46;98203.94;;;0.18;66.09
49515;BME280;35415;47.870;16.058;2023-02-28T00:11:14;98170.75;;;-0.08;65.48
49515;BME280;35415;47.870;16.058;2023-02-28T00:13:43;98207.91;;;0.14;66.05
49515;BME280;35415;47.870;16.058;2023-02-28T00:16:16;98208.09;;;0.12;66.10
49515;BME280;35415;47.870;16.058;2023-02-28T00:18:43;98211.94;;;0.10;66.41
49515;BME280;35415;47.870;16.058;2023-02-28T00:21:12;98219.03;;;0.09;66.31
49515;BME280;35415;47.870;16.058;2023-02-28T00:23:39;98212.94;;;0.09;66.55
49515;BME280;35415;47.870;16.058;2023-02-28T00:26:06;98217.41;;;0.08;66.07
49515;BME280;35415;47.870;16.058;2023-02-28T00:28:33;98208.81;;;0.06;66.83
49515;BME280;35415;47.870;16.058;2023-02-28T00:31:00;98212.47;;;0.05;66.53
49515;BME280;35415;47.870;16.058;2023-02-28T00:33:29;98201.94;;;-0.03;66.22
49515;BME280;35415;47.870;16.058;2023-02-28T00:36:07;98207.00;;;0.07;65.98
49515;BME280;35415;47.870;16.058;2023-02-28T00:38:35;98216.94;;;0.05;66.79
49515;BME280;35415;47.870;16.058;2023-02-28T00:41:02;98213.47;;;0.04;67.20
49515;BME280;35415;47.870;16.058;2023-02-28T00:43:32;98204.56;;;-0.03;66.69
49515;BME280;35415;47.870;16.058;2023-02-28T00:45:59;98202.25;;;0.02;66.85
49515;BME280;35415;47.870;16.058;2023-02-28T00:48:26;98202.13;;;-0.05;66.92
49515;BME280;35415;47.870;16.058;2023-02-28T00:50:54;98200.66;;;-0.07;66.65
49515;BME280;35415;47.870;16.058;2023-02-28T00:53:22;98204.94;;;-0.06;66.83
49515;BME280;35415;47.870;16.058;2023-02-28T00:55:49;98204.75;;;-0.05;67.32
49515;BME280;35415;47.870;16.058;2023-02-28T00:58:16;98200.38;;;-0.12;67.29
49515;BME280;35415;47.870;16.058;2023-02-28T01:00:43;98202.66;;;-0.09;67.09
49515;BME280;35415;47.870;16.058;2023-02-28T01:03:15;98183.91;;;-0.22;67.08
49515;BME280;35415;47.870;16.058;2023-02-28T01:05:42;98186.72;;;-0.24;66.95
49515;BME280;35415;47.870;16.058;2023-02-28T01:08:11;98184.16;;;-0.32;67.21
49515;BME280;35415;47.870;16.058;2023-02-28T01:10:39;98206.88;;;-0.23;67.42
49515;BME280;35415;47.870;16.058;2023-02-28T01:13:06;98209.41;;;-0.29;67.35
49515;BME280;35415;47.870;16.058;2023-02-28T01:15:33;98214.53;;;-0.28;67.95
49515;BME280;35415;47.870;16.058;2023-02-28T01:18:00;98199.41;;;-0.42;67.86
49515;BME280;35415;47.870;16.058;2023-02-28T01:20:27;98219.66;;;-0.35;67.92
49515;BME280;35415;47.870;16.058;2023-02-28T01:22:54;98220.19;;;-0.39;68.17
49515;BME280;35415;47.870;16.058;2023-02-28T01:25:23;98218.19;;;-0.37;68.24
49515;BME280;35415;47.870;16.058;2023-02-28T01:27:50;98215.75;;;-0.39;68.16
49515;BME280;35415;47.870;16.058;2023-02-28T01:30:17;98222.84;;;-0.39;69.17
49515;BME280;35415;47.870;16.058;2023-02-28T01:32:44;98219.38;;;-0.40;69.46
49515;BME280;35415;47.870;16.058;2023-02-28T01:35:12;98224.03;;;-0.42;69.07
49515;BME280;35415;47.870;16.058;2023-02-28T01:37:39;98219.56;;;-0.41;68.95
49515;BME280;35415;47.870;16.058;2023-02-28T01:40:07;98224.84;;;-0.41;68.90
49515;BME280;35415;47.870;16.058;2023-02-28T01:42:35;98227.66;;;-0.43;69.08
49515;BME280;35415;47.870;16.058;2023-02-28T01:45:14;98223.19;;;-0.42;68.76
49515;BME280;35415;47.870;16.058;2023-02-28T01:47:43;98206.72;;;-0.52;69.02
49515;BME280;35415;47.870;16.058;2023-02-28T01:50:14;98211.53;;;-0.56;69.08
49515;BME280;35415;47.870;16.058;2023-02-28T01:52:44;98221.72;;;-0.45;68.96
49515;BME280;35415;47.870;16.058;2023-02-28T01:55:13;98225.38;;;-0.46;69.21
49515;BME280;35415;47.870;16.058;2023-02-28T01:57:45;98222.91;;;-0.47;69.33
49515;BME280;35415;47.870;16.058;2023-02-28T02:00:16;98218.63;;;-0.48;69.75
49515;BME280;35415;47.870;16.058;2023-02-28T02:02:47;98212.69;;;-0.50;69.28
49515;BME280;35415;47.870;16.058;2023-02-28T02:05:18;98202.69;;;-0.63;69.53
49515;BME280;35415;47.870;16.058;2023-02-28T02:07:47;98203.69;;;-0.64;69.51
49515;BME280;35415;47.870;16.058;2023-02-28T02:10:17;98198.41;;;-0.72;69.68
49515;BME280;35415;47.870;16.058;2023-02-28T02:13:08;98218.34;;;-0.62;69.76
49515;BME280;35415;47.870;16.058;2023-02-28T02:15:41;98221.03;;;-0.70;70.30
49515;BME280;35415;47.870;16.058;2023-02-28T02:18:18;98219.72;;;-0.74;70.12
49515;BME280;35415;47.870;16.058;2023-02-28T02:27:20;98224.44;;;-0.92;70.96
49515;BME280;35415;47.870;16.058;2023-02-28T02:30:11;98221.00;;;-1.01;70.59
49515;BME280;35415;47.870;16.058;2023-02-28T02:33:26;98223.16;;;-1.04;70.66
49515;BME280;35415;47.870;16.058;2023-02-28T02:36:06;98219.84;;;-1.06;71.42
49515;BME280;35415;47.870;16.058;2023-02-28T02:38:41;98202.25;;;-1.22;71.34
49515;BME280;35415;47.870;16.058;2023-02-28T02:41:15;98221.38;;;-1.12;71.45
49515;BME280;35415;47.870;16.058;2023-02-28T02:43:47;98217.59;;;-1.17;71.82
49515;BME280;35415;47.870;16.058;2023-02-28T02:46:20;98216.59;;;-1.16;72.29
49515;BME280;35415;47.870;16.058;2023-02-28T02:48:48;98213.97;;;-1.25;72.56
49515;BME280;35415;47.870;16.058;2023-02-28T02:51:20;98196.03;;;-1.37;72.20
49515;BME280;35415;47.870;16.058;2023-02-28T02:53:52;98211.19;;;-1.31;71.68
49515;BME280;35415;47.870;16.058;2023-02-28T02:56:23;98216.63;;;-1.25;71.85
49515;BME280;35415;47.870;16.058;2023-02-28T02:58:54;98213.66;;;-1.30;71.92
49515;BME280;35415;47.870;16.058;2023-02-28T03:01:24;98215.31;;;-1.29;72.25
49515;BME280;35415;47.870;16.058;2023-02-28T03:03:56;98210.88;;;-1.36;72.65
49515;BME280;35415;47.870;16.058;2023-02-28T03:06:25;98220.13;;;-1.32;72.98
49515;BME280;35415;47.870;16.058;2023-02-28T03:08:53;98222.09;;;-1.34;73.20
49515;BME280;35415;47.870;16.058;2023-02-28T03:11:20;98216.13;;;-1.36;73.13
49515;BME280;35415;47.870;16.058;2023-02-28T03:14:18;98220.44;;;-1.35;72.24
49515;BME280;35415;47.870;16.058;2023-02-28T03:17:06;98189.97;;;-1.54;72.45
49515;BME280;35415;47.870;16.058;2023-02-28T03:19:47;98200.69;;;-1.56;72.71
49515;BME280;35415;47.870;16.058;2023-02-28T03:25:10;98216.19;;;-1.53;73.16
49515;BME280;35415;47.870;16.058;2023-02-28T03:27:40;98218.50;;;-1.49;71.28
49515;BME280;35415;47.870;16.058;2023-02-28T03:30:12;98219.66;;;-1.60;73.07
49515;BME280;35415;47.870;16.058;2023-02-28T03:32:46;98219.00;;;-1.62;73.15
49515;BME280;35415;47.870;16.058;2023-02-28T03:35:20;98202.38;;;-1.79;73.58
49515;BME280;35415;47.870;16.058;2023-02-28T03:37:53;98208.81;;;-1.82;73.16
49515;BME280;35415;47.870;16.058;2023-02-28T03:40:24;98216.88;;;-1.75;73.70
49515;BME280;35415;47.870;16.058;2023-02-28T03:42:57;98213.59;;;-1.77;74.00
49515;BME280;35415;47.870;16.058;2023-02-28T03:45:28;98212.09;;;-1.79;73.46
49515;BME280;35415;47.870;16.058;2023-02-28T03:47:59;98207.66;;;-1.79;74.18
49515;BME280;35415;47.870;16.058;2023-02-28T03:50:31;98195.63;;;-1.90;74.40
49515;BME280;35415;47.870;16.058;2023-02-28T03:53:04;98171.06;;;-2.06;74.57
49515;BME280;35415;47.870;16.058;2023-02-28T03:55:38;98222.00;;;-1.82;74.39
49515;BME280;35415;47.870;16.058;2023-02-28T03:58:12;98222.16;;;-1.83;74.65
49515;BME280;35415;47.870;16.058;2023-02-28T04:00:45;98212.75;;;-1.94;73.73
49515;BME280;35415;47.870;16.058;2023-02-28T04:03:13;98221.97;;;-1.90;73.90
49515;BME280;35415;47.870;16.058;2023-02-28T04:05:49;98224.78;;;-1.91;74.47
49515;BME280;35415;47.870;16.058;2023-02-28T04:08:19;98223.31;;;-1.94;74.46
49515;BME280;35415;47.870;16.058;2023-02-28T04:10:51;98200.25;;;-2.08;74.38
49515;BME280;35415;47.870;16.058;2023-02-28T04:13:21;98218.53;;;-1.98;74.76
49515;BME280;35415;47.870;16.058;2023-02-28T04:15:48;98220.53;;;-2.00;74.79
49515;BME280;35415;47.870;16.058;2023-02-28T04:18:17;98227.09;;;-2.04;74.77
49515;BME280;35415;47.870;16.058;2023-02-28T04:20:44;98230.06;;;-2.07;74.52
49515;BME280;35415;47.870;16.058;2023-02-28T04:23:11;98232.19;;;-2.11;75.15
49515;BME280;35415;47.870;16.058;2023-02-28T04:25:40;98231.06;;;-2.17;75.02
49515;BME280;35415;47.870;16.058;2023-02-28T04:28:07;98225.94;;;-2.34;74.77
49515;BME280;35415;47.870;16.058;2023-02-28T04:30:35;98219.13;;;-2.37;75.74
49515;BME280;35415;47.870;16.058;2023-02-28T04:33:02;98204.66;;;-2.49;75.55
49515;BME280;35415;47.870;16.058;2023-02-28T04:35:29;98156.53;;;-2.76;75.81
49515;BME280;35415;47.870;16.058;2023-02-28T04:37:56;98218.66;;;-2.40;75.92
49515;BME280;35415;47.870;16.058;2023-02-28T04:40:23;98188.44;;;-2.70;76.71
49515;BME280;35415;47.870;16.058;2023-02-28T04:42:52;98181.38;;;-2.70;76.99
49515;BME280;35415;47.870;16.058;2023-02-28T04:45:19;98204.13;;;-2.61;76.25
49515;BME280;35415;47.870;16.058;2023-02-28T04:47:47;98219.47;;;-2.48;76.73
49515;BME280;35415;47.870;16.058;2023-02-28T04:50:14;98219.78;;;-2.51;77.30
49515;BME280;35415;47.870;16.058;2023-02-28T04:52:42;98151.00;;;-3.07;77.86
49515;BME280;35415;47.870;16.058;2023-02-28T04:55:10;98217.94;;;-2.59;77.38
49515;BME280;35415;47.870;16.058;2023-02-28T04:57:37;98184.13;;;-2.88;77.46
49515;BME280;35415;47.870;16.058;2023-02-28T05:00:08;98193.66;;;-2.87;77.29
49515;BME280;35415;47.870;16.058;2023-02-28T05:02:37;98237.38;;;-2.60;75.23
49515;BME280;35415;47.870;16.058;2023-02-28T05:05:04;98190.53;;;-2.90;77.21
49515;BME280;35415;47.870;16.058;2023-02-28T05:07:31;98223.38;;;-2.68;77.58
49515;BME280;35415;47.870;16.058;2023-02-28T05:09:59;98180.44;;;-3.03;77.87
49515;BME280;35415;47.870;16.058;2023-02-28T05:12:26;98216.09;;;-2.75;77.48
49515;BME280;35415;47.870;16.058;2023-02-28T05:14:53;98223.00;;;-2.74;78.19
49515;BME280;35415;47.870;16.058;2023-02-28T05:17:21;98237.50;;;-2.69;77.90
49515;BME280;35415;47.870;16.058;2023-02-28T05:19:48;98242.25;;;-2.73;77.87
49515;BME280;35415;47.870;16.058;2023-02-28T05:22:16;98217.91;;;-2.83;77.43
49515;BME280;35415;47.870;16.058;2023-02-28T05:24:44;98235.84;;;-2.79;77.31
49515;BME280;35415;47.870;16.058;2023-02-28T05:27:11;98236.66;;;-2.78;77.57
49515;BME280;35415;47.870;16.058;2023-02-28T05:29:38;98241.44;;;-2.82;77.75
49515;BME280;35415;47.870;16.058;2023-02-28T05:32:09;98246.03;;;-2.84;77.55
49515;BME280;35415;47.870;16.058;2023-02-28T05:34:39;98251.97;;;-2.82;78.30
49515;BME280;35415;47.870;16.058;2023-02-28T05:37:07;98248.50;;;-2.82;78.17
49515;BME280;35415;47.870;16.058;2023-02-28T05:39:39;98233.97;;;-2.94;78.29
49515;BME280;35415;47.870;16.058;2023-02-28T05:42:06;98244.38;;;-2.85;78.20
49515;BME280;35415;47.870;16.058;2023-02-28T05:44:35;98235.94;;;-2.96;78.55
49515;BME280;35415;47.870;16.058;2023-02-28T05:47:02;98250.59;;;-2.86;78.60
49515;BME280;35415;47.870;16.058;2023-02-28T05:49:29;98218.78;;;-3.09;78.65
49515;BME280;35415;47.870;16.058;2023-02-28T05:51:58;98243.34;;;-2.92;78.56
49515;BME280;35415;47.870;16.058;2023-02-28T05:54:25;98229.34;;;-3.00;78.93
49515;BME280;35415;47.870;16.058;2023-02-28T05:56:53;98251.91;;;-2.90;78.81
49515;BME280;35415;47.870;16.058;2023-02-28T05:59:20;98237.09;;;-2.99;78.50
49515;BME280;35415;47.870;16.058;2023-02-28T06:01:47;98243.16;;;-2.98;78.58
49515;BME280;35415;47.870;16.058;2023-02-28T06:04:15;98252.41;;;-2.94;78.77
49515;BME280;35415;47.870;16.058;2023-02-28T06:06:44;98234.56;;;-3.09;78.99
49515;BME280;35415;47.870;16.058;2023-02-28T06:09:13;98250.25;;;-2.99;78.74
49515;BME280;35415;47.870;16.058;2023-02-28T06:11:40;98252.22;;;-3.01;79.00
49515;BME280;35415;47.870;16.058;2023-02-28T06:14:14;98231.75;;;-3.15;79.25
49515;BME280;35415;47.870;16.058;2023-02-28T06:16:41;98257.47;;;-3.01;79.84
49515;BME280;35415;47.870;16.058;2023-02-28T06:19:09;98254.97;;;-3.03;79.31
49515;BME280;35415;47.870;16.058;2023-02-28T06:21:39;98203.97;;;-3.44;80.03
49515;BME280;35415;47.870;16.058;2023-02-28T06:24:07;98253.97;;;-3.10;80.87
49515;BME280;35415;47.870;16.058;2023-02-28T06:26:38;98244.69;;;-3.22;81.13
49515;BME280;35415;47.870;16.058;2023-02-28T06:29:06;98219.16;;;-3.29;80.58
49515;BME280;35415;47.870;16.058;2023-02-28T06:31:35;98189.81;;;-3.51;80.69
49515;BME280;35415;47.870;16.058;2023-02-28T06:34:05;98240.91;;;-3.19;81.66
49515;BME280;35415;47.870;16.058;2023-02-28T06:36:32;98241.22;;;-3.22;81.74
49515;BME280;35415;47.870;16.058;2023-02-28T06:38:59;98237.09;;;-3.25;81.81
49515;BME280;35415;47.870;16.058;2023-02-28T06:41:27;98244.25;;;-3.17;82.48
49515;BME280;35415;47.870;16.058;2023-02-28T06:43:56;98254.13;;;-3.11;82.74
49515;BME280;35415;47.870;16.058;2023-02-28T06:46:23;98213.69;;;-3.36;83.48
49515;BME280;35415;47.870;16.058;2023-02-28T06:48:50;98264.34;;;-3.08;83.74
49515;BME280;35415;47.870;16.058;2023-02-28T06:51:19;98256.28;;;-3.07;84.18
49515;BME280;35415;47.870;16.058;2023-02-28T06:53:50;98249.84;;;-3.12;84.33
49515;BME280;35415;47.870;16.058;2023-02-28T06:56:19;98216.03;;;-3.33;84.02
49515;BME280;35415;47.870;16.058;2023-02-28T06:58:47;98264.06;;;-2.97;84.33
49515;BME280;35415;47.870;16.058;2023-02-28T07:01:18;98209.63;;;-3.30;84.31
49515;BME280;35415;47.870;16.058;2023-02-28T07:03:45;98233.56;;;-3.16;85.23
49515;BME280;35415;47.870;16.058;2023-02-28T07:06:17;98232.25;;;-3.12;85.14
49515;BME280;35415;47.870;16.058;2023-02-28T07:08:44;98233.38;;;-3.14;85.48
49515;BME280;35415;47.870;16.058;2023-02-28T07:11:12;98187.94;;;-3.24;85.87
49515;BME280;35415;47.870;16.058;2023-02-28T07:13:39;98235.44;;;-2.92;86.56
49515;BME280;35415;47.870;16.058;2023-02-28T07:16:07;98237.00;;;-2.81;87.24
49515;BME280;35415;47.870;16.058;2023-02-28T07:18:40;98207.53;;;-2.85;87.17
49515;BME280;35415;47.870;16.058;2023-02-28T07:21:10;98199.41;;;-2.99;87.23
49515;BME280;35415;47.870;16.058;2023-02-28T07:23:38;98229.31;;;-2.66;87.37
49515;BME280;35415;47.870;16.058;2023-02-28T07:26:07;98173.59;;;-2.88;87.61
49515;BME280;35415;47.870;16.058;2023-02-28T07:28:36;98201.94;;;-2.74;87.71
49515;BME280;35415;47.870;16.058;2023-02-28T07:31:07;98226.88;;;-2.44;87.35
49515;BME280;35415;47.870;16.058;2023-02-28T07:33:35;98220.63;;;-2.43;87.48
49515;BME280;35415;47.870;16.058;2023-02-28T07:36:06;98260.03;;;-2.08;87.42
49515;BME280;35415;47.870;16.058;2023-02-28T07:38:34;98219.34;;;-2.30;87.67
49515;BME280;35415;47.870;16.058;2023-02-28T07:41:04;98226.25;;;-2.05;87.34
49515;BME280;35415;47.870;16.058;2023-02-28T07:43:34;98201.69;;;-2.22;87.13
49515;BME280;35415;47.870;16.058;2023-02-28T07:46:02;98210.28;;;-2.03;86.50
49515;BME280;35415;47.870;16.058;2023-02-28T07:48:30;98257.06;;;-1.57;86.09
49515;BME280;35415;47.870;16.058;2023-02-28T07:50:58;98257.56;;;-1.53;86.21
49515;BME280;35415;47.870;16.058;2023-02-28T07:53:27;98206.63;;;-1.70;85.57
49515;BME280;35415;47.870;16.058;2023-02-28T07:55:58;98224.59;;;-1.49;85.53
49515;BME280;35415;47.870;16.058;2023-02-28T07:58:27;98220.81;;;-1.46;84.59
49515;BME280;35415;47.870;16.058;2023-02-28T08:00:54;98201.16;;;-1.52;84.23
49515;BME280;35415;47.870;16.058;2023-02-28T08:03:23;98256.63;;;-0.97;84.05
49515;BME280;35415;47.870;16.058;2023-02-28T08:05:51;98172.31;;;-1.45;83.51
49515;BME280;35415;47.870;16.058;2023-02-28T08:08:21;98202.94;;;-1.28;83.15
49515;BME280;35415;47.870;16.058;2023-02-28T08:10:51;98244.88;;;-0.86;82.91
49515;BME280;35415;47.870;16.058;2023-02-28T08:13:18;98209.94;;;-1.04;82.54
49515;BME280;35415;47.870;16.058;2023-02-28T08:15:47;98234.72;;;-0.66;82.27
49515;BME280;35415;47.870;16.058;2023-02-28T08:18:15;98264.50;;;-0.41;81.74
49515;BME280;35415;47.870;16.058;2023-02-28T08:20:42;98272.03;;;-0.30;81.30
49515;BME280;35415;47.870;16.058;2023-02-28T08:23:11;98271.81;;;-0.20;81.51
49515;BME280;35415;47.870;16.058;2023-02-28T08:25:38;98198.31;;;-0.56;80.51
49515;BME280;35415;47.870;16.058;2023-02-28T08:28:08;98245.84;;;-0.17;80.34
49515;BME280;35415;47.870;16.058;2023-02-28T08:30:35;98208.13;;;-0.34;80.18
49515;BME280;35415;47.870;16.058;2023-02-28T08:33:05;98232.75;;;-0.10;80.24
49515;BME280;35415;47.870;16.058;2023-02-28T08:35:32;98279.34;;;0.37;80.24
49515;BME280;35415;47.870;16.058;2023-02-28T08:38:01;98197.66;;;-0.04;79.77
49515;BME280;35415;47.870;16.058;2023-02-28T08:40:32;98183.66;;;0.10;79.21
49515;BME280;35415;47.870;16.058;2023-02-28T08:42:59;98275.59;;;0.69;79.21
49515;BME280;35415;47.870;16.058;2023-02-28T08:45:27;98227.56;;;0.57;79.41
49515;BME280;35415;47.870;16.058;2023-02-28T08:47:55;98242.19;;;0.82;78.77
49515;BME280;35415;47.870;16.058;2023-02-28T08:50:22;98233.06;;;0.85;78.34
49515;BME280;35415;47.870;16.058;2023-02-28T08:52:50;98198.91;;;0.90;77.35
49515;BME280;35415;47.870;16.058;2023-02-28T08:55:17;98261.81;;;1.32;77.47
49515;BME280;35415;47.870;16.058;2023-02-28T08:57:44;98267.84;;;1.56;77.81
49515;BME280;35415;47.870;16.058;2023-02-28T09:00:13;98216.13;;;1.30;76.27
49515;BME280;35415;47.870;16.058;2023-02-28T09:02:42;98270.88;;;1.89;75.66
49515;BME280;35415;47.870;16.058;2023-02-28T09:05:09;98250.66;;;1.88;75.53
49515;BME280;35415;47.870;16.058;2023-02-28T09:07:36;98219.03;;;1.86;74.70
49515;BME280;35415;47.870;16.058;2023-02-28T09:10:04;98241.31;;;2.13;74.39
49515;BME280;35415;47.870;16.058;2023-02-28T09:12:34;98231.66;;;2.27;73.47
49515;BME280;35415;47.870;16.058;2023-02-28T09:15:02;98258.88;;;2.57;72.37
49515;BME280;35415;47.870;16.058;2023-02-28T09:17:30;98215.75;;;2.33;71.15
49515;BME280;35415;47.870;16.058;2023-02-28T09:19:59;98231.06;;;2.53;69.80
49515;BME280;35415;47.870;16.058;2023-02-28T09:22:27;98213.53;;;2.58;69.49
49515;BME280;35415;47.870;16.058;2023-02-28T09:24:55;98252.16;;;2.89;69.54
49515;BME280;35415;47.870;16.058;2023-02-28T09:27:22;98235.00;;;2.91;69.15
49515;BME280;35415;47.870;16.058;2023-02-28T09:29:49;98216.13;;;2.80;66.58
49515;BME280;35415;47.870;16.058;2023-02-28T09:32:16;98266.69;;;3.27;68.33
49515;BME280;35415;47.870;16.058;2023-02-28T09:34:46;98246.97;;;3.09;68.73
49515;BME280;35415;47.870;16.058;2023-02-28T09:37:14;98230.63;;;3.12;66.58
49515;BME280;35415;47.870;16.058;2023-02-28T09:39:42;98242.41;;;3.37;66.31
49515;BME280;35415;47.870;16.058;2023-02-28T09:42:18;98266.88;;;3.60;66.62
49515;BME280;35415;47.870;16.058;2023-02-28T09:44:49;98247.22;;;3.61;66.44
49515;BME280;35415;47.870;16.058;2023-02-28T09:47:25;98279.25;;;3.88;64.00
49515;BME280;35415;47.870;16.058;2023-02-28T09:49:56;98196.63;;;3.48;64.37
49515;BME280;35415;47.870;16.058;2023-02-28T09:52:28;98230.09;;;3.84;64.61
49515;BME280;35415;47.870;16.058;2023-02-28T09:55:18;98258.22;;;4.06;63.95
49515;BME280;35415;47.870;16.058;2023-02-28T09:57:46;98235.47;;;4.04;62.28
49515;BME280;35415;47.870;16.058;2023-02-28T10:00:15;98238.56;;;4.07;62.27
49515;BME280;35415;47.870;16.058;2023-02-28T10:03:10;98262.34;;;4.22;62.60
49515;BME280;35415;47.870;16.058;2023-02-28T10:05:50;98239.13;;;4.03;61.57
49515;BME280;35415;47.870;16.058;2023-02-28T10:08:25;98273.00;;;4.22;60.67
49515;BME280;35415;47.870;16.058;2023-02-28T10:10:56;98223.56;;;3.93;59.13
49515;BME280;35415;47.870;16.058;2023-02-28T10:13:32;98259.28;;;4.25;60.39
49515;BME280;35415;47.870;16.058;2023-02-28T10:16:06;98221.53;;;4.02;57.70
49515;BME280;35415;47.870;16.058;2023-02-28T10:18:42;98271.16;;;4.29;58.62
49515;BME280;35415;47.870;16.058;2023-02-28T10:21:18;98279.97;;;4.49;57.76
49515;BME280;35415;47.870;16.058;2023-02-28T10:23:49;98275.91;;;4.53;57.43
49515;BME280;35415;47.870;16.058;2023-02-28T10:26:19;98249.88;;;4.42;56.03
49515;BME280;35415;47.870;16.058;2023-02-28T10:28:47;98272.41;;;4.60;56.62
49515;BME280;35415;47.870;16.058;2023-02-28T10:31:18;98271.16;;;4.69;56.62
49515;BME280;35415;47.870;16.058;2023-02-28T10:33:49;98187.16;;;4.33;56.53
49515;BME280;35415;47.870;16.058;2023-02-28T10:36:19;98207.84;;;4.58;56.65
49515;BME280;35415;47.870;16.058;2023-02-28T10:38:49;98264.41;;;4.86;55.27
49515;BME280;35415;47.870;16.058;2023-02-28T10:41:27;98232.81;;;4.83;56.23
49515;BME280;35415;47.870;16.058;2023-02-28T10:44:15;98211.94;;;4.80;55.82
49515;BME280;35415;47.870;16.058;2023-02-28T10:46:45;98177.28;;;4.73;54.76
49515;BME280;35415;47.870;16.058;2023-02-28T10:49:14;98228.47;;;5.15;54.90
49515;BME280;35415;47.870;16.058;2023-02-28T10:51:42;98200.41;;;5.06;54.51
49515;BME280;35415;47.870;16.058;2023-02-28T10:54:19;98227.78;;;5.33;55.28
49515;BME280;35415;47.870;16.058;2023-02-28T10:57:06;98183.34;;;5.13;55.80
49515;BME280;35415;47.870;16.058;2023-02-28T10:59:35;98219.72;;;5.53;53.61
49515;BME280;35415;47.870;16.058;2023-02-28T11:02:31;98242.63;;;5.73;54.69
49515;BME280;35415;47.870;16.058;2023-02-28T11:04:58;98187.13;;;5.37;53.04
49515;BME280;35415;47.870;16.058;2023-02-28T11:07:26;98205.97;;;5.56;53.24
49515;BME280;35415;47.870;16.058;2023-02-28T11:09:59;98226.78;;;5.79;53.31
49515;BME280;35415;47.870;16.058;2023-02-28T11:12:29;98211.00;;;5.77;53.21
49515;BME280;35415;47.870;16.058;2023-02-28T11:15:02;98230.41;;;5.97;52.07
49515;BME280;35415;47.870;16.058;2023-02-28T11:17:31;98210.75;;;5.92;51.80
49515;BME280;35415;47.870;16.058;2023-02-28T11:20:01;98212.59;;;5.91;51.84
49515;BME280;35415;47.870;16.058;2023-02-28T11:22:32;98149.94;;;5.56;51.42
49515;BME280;35415;47.870;16.058;2023-02-28T11:25:09;98221.34;;;6.05;52.09
49515;BME280;35415;47.870;16.058;2023-02-28T11:27:46;98177.72;;;5.80;52.17
49515;BME280;35415;47.870;16.058;2023-02-28T11:30:30;98197.81;;;5.82;51.41
49515;BME280;35415;47.870;16.058;2023-02-28T11:32:59;98229.97;;;6.00;49.99
49515;BME280;35415;47.870;16.058;2023-02-28T11:35:31;98174.13;;;5.54;50.57
49515;BME280;35415;47.870;16.058;2023-02-28T11:38:05;98170.66;;;5.54;50.62
49515;BME280;35415;47.870;16.058;2023-02-28T11:40:44;98229.84;;;5.89;50.57
49515;BME280;35415;47.870;16.058;2023-02-28T11:43:22;98185.22;;;5.58;49.54
49515;BME280;35415;47.870;16.058;2023-02-28T11:46:07;98162.91;;;5.46;50.75
49515;BME280;35415;47.870;16.058;2023-02-28T11:48:47;98182.56;;;5.51;50.21
49515;BME280;35415;47.870;16.058;2023-02-28T11:51:21;98186.69;;;5.47;50.42
49515;BME280;35415;47.870;16.058;2023-02-28T11:54:15;98202.06;;;5.58;51.37
49515;BME280;35415;47.870;16.058;2023-02-28T11:56:53;98154.19;;;5.25;51.20
49515;BME280;35415;47.870;16.058;2023-02-28T11:59:38;98170.13;;;5.38;50.71
49515;BME280;35415;47.870;16.058;2023-02-28T12:02:23;98224.19;;;5.65;51.31
49515;BME280;35415;47.870;16.058;2023-02-28T12:05:05;98217.63;;;5.61;50.88
49515;BME280;35415;47.870;16.058;2023-02-28T12:07:45;98205.13;;;5.62;51.16
49515;BME280;35415;47.870;16.058;2023-02-28T12:10:20;98202.22;;;5.63;51.65
49515;BME280;35415;47.870;16.058;2023-02-28T12:13:00;98202.06;;;5.58;51.53
49515;BME280;35415;47.870;16.058;2023-02-28T12:18:47;98204.84;;;5.77;51.82
49515;BME280;35415;47.870;16.058;2023-02-28T12:21:23;98203.31;;;5.87;51.45
49515;BME280;35415;47.870;16.058;2023-02-28T12:26:43;98198.81;;;5.94;50.09
49515;BME280;35415;47.870;16.058;2023-02-28T12:29:17;98165.00;;;5.75;50.83
49515;BME280;35415;47.870;16.058;2023-02-28T12:31:49;98165.19;;;5.80;50.23
49515;BME280;35415;47.870;16.058;2023-02-28T12:34:20;98144.91;;;5.72;50.24
49515;BME280;35415;47.870;16.058;2023-02-28T12:36:51;98178.31;;;5.82;50.13
49515;BME280;35415;47.870;16.058;2023-02-28T12:39:24;98162.44;;;5.87;50.28
49515;BME280;35415;47.870;16.058;2023-02-28T12:41:56;98182.13;;;5.99;50.23
49515;BME280;35415;47.870;16.058;2023-02-28T12:44:33;98140.56;;;5.78;50.19
49515;BME280;35415;47.870;16.058;2023-02-28T12:47:04;98184.00;;;5.98;50.08
49515;BME280;35415;47.870;16.058;2023-02-28T12:49:36;98171.91;;;5.89;49.92
49515;BME280;35415;47.870;16.058;2023-02-28T12:52:05;98153.91;;;5.78;49.61
49515;BME280;35415;47.870;16.058;2023-02-28T12:54:42;98180.13;;;5.94;50.17
49515;BME280;35415;47.870;16.058;2023-02-28T12:57:14;98158.38;;;5.84;50.46
49515;BME280;35415;47.870;16.058;2023-02-28T12:59:49;98158.25;;;5.72;50.50
49515;BME280;35415;47.870;16.058;2023-02-28T13:02:59;98149.63;;;5.70;51.38
49515;BME280;35415;47.870;16.058;2023-02-28T13:08:56;98170.41;;;6.00;50.66
49515;BME280;35415;47.870;16.058;2023-02-28T13:11:29;98172.28;;;5.99;49.64
49515;BME280;35415;47.870;16.058;2023-02-28T13:13:58;98163.88;;;5.96;50.19
49515;BME280;35415;47.870;16.058;2023-02-28T13:16:27;98168.34;;;6.02;49.87
49515;BME280;35415;47.870;16.058;2023-02-28T13:19:09;98148.66;;;5.96;50.27
49515;BME280;35415;47.870;16.058;2023-02-28T13:21:45;98149.50;;;5.97;50.73
49515;BME280;35415;47.870;16.058;2023-02-28T13:24:46;98132.47;;;5.85;50.86
49515;BME280;35415;47.870;16.058;2023-02-28T13:27:32;98088.22;;;5.70;50.47
49515;BME280;35415;47.870;16.058;2023-02-28T13:33:23;98161.06;;;6.16;50.98
49515;BME280;35415;47.870;16.058;2023-02-28T13:36:07;98153.41;;;6.19;51.00
49515;BME280;35415;47.870;16.058;2023-02-28T13:38:40;98128.88;;;6.04;50.61